Mesa.AZweather.com - Mesa, AZ
   Red Mountain Frwy and University Dr., El 1518 ft.
       --- Wednesday  Sep. 1, 2021 ---
 
 High Temperature ..  91F at 16:09
 Low Temperature ...  71F at 00:00
 
 High Humidity .....  93% at 06:47
 Low Humidity ......  42% at 16:41
 
 High Barometer ....  29.87 at 21:50
 Low Barometer .....  29.75 at 01:18
 
 High Dew Point ....  73F at 08:35
 Low Dew Point .....  63F at 17:17
 
 Rainfall Total ....  1.01 in.
 
 High Wind Speed ...  ---
                     
 
 Time   Temp  Humi  Rain     Baro  DewPt  Wind
00:00,  71F, 83%, 0.00 in, 29.79, 66F, ---
00:30,  71F, 86%, 0.19 in, 29.79, 67F, ---
01:00,  71F, 87%, 0.48 in, 29.77, 68F, ---
01:30,  71F, 89%, 0.50 in, 29.75, 68F, ---
02:00,  71F, 90%, 0.50 in, 29.76, 69F, ---
02:30,  71F, 90%, 0.50 in, 29.76, 69F, ---
03:00,  71F, 90%, 0.50 in, 29.76, 69F, ---
03:30,  71F, 91%, 0.50 in, 29.76, 69F, ---
04:00,  71F, 91%, 0.50 in, 29.76, 69F, ---
04:30,  71F, 91%, 0.50 in, 29.77, 69F, ---
05:00,  71F, 91%, 0.50 in, 29.77, 69F, ---
05:30,  71F, 92%, 0.50 in, 29.78, 69F, ---
06:00,  71F, 92%, 0.50 in, 29.79, 69F, ---
06:30,  71F, 92%, 0.50 in, 29.81, 69F, ---
07:00,  71F, 93%, 0.50 in, 29.81, 69F, ---
07:30,  72F, 93%, 0.50 in, 29.82, 69F, ---
08:00,  74F, 93%, 0.50 in, 29.84, 71F, ---
08:30,  74F, 93%, 0.50 in, 29.84, 71F, ---
09:00,  76F, 85%, 0.50 in, 29.85, 70F, ---
09:30,  76F, 81%, 0.50 in, 29.85, 69F, ---
10:00,  78F, 73%, 0.50 in, 29.85, 69F, ---
10:30,  80F, 70%, 0.50 in, 29.85, 70F, ---
11:00,  81F, 68%, 0.50 in, 29.85, 69F, ---
11:30,  83F, 60%, 0.50 in, 29.85, 67F, ---
12:00,  84F, 58%, 0.50 in, 29.84, 68F, ---
12:30,  86F, 54%, 0.50 in, 29.84, 67F, ---
13:00,  86F, 55%, 0.50 in, 29.84, 68F, ---
13:30,  86F, 52%, 0.50 in, 29.82, 66F, ---
14:00,  85F, 52%, 0.50 in, 29.81, 65F, ---
14:30,  87F, 48%, 0.50 in, 29.80, 66F, ---
15:00,  88F, 46%, 0.50 in, 29.79, 64F, ---
15:30,  88F, 49%, 0.50 in, 29.79, 66F, ---
16:00,  90F, 46%, 0.50 in, 29.78, 66F, ---
16:30,  91F, 44%, 0.50 in, 29.77, 66F, ---
17:00,  91F, 42%, 0.50 in, 29.77, 65F, ---
17:30,  89F, 44%, 0.50 in, 29.77, 65F, ---
18:00,  89F, 44%, 0.50 in, 29.76, 65F, ---
18:30,  86F, 47%, 0.50 in, 29.77, 63F, ---
19:00,  85F, 50%, 0.50 in, 29.79, 64F, ---
19:30,  80F, 63%, 0.66 in, 29.81, 67F, ---
20:00,  74F, 78%, 0.75 in, 29.81, 66F, ---
20:30,  74F, 82%, 0.75 in, 29.84, 68F, ---
21:00,  74F, 83%, 0.88 in, 29.83, 68F, ---
21:30,  73F, 86%, 0.88 in, 29.83, 69F, ---
22:00,  73F, 84%, 0.88 in, 29.85, 68F, ---
22:30,  72F, 84%, 0.99 in, 29.86, 67F, ---
23:00,  72F, 87%, 1.01 in, 29.86, 68F, ---
23:30,  72F, 89%, 1.01 in, 29.85, 68F, ---
23:59,  73F, 90%, 1.01 in, 29.86, 70F, ---